sensor_id;sensor_type;location;lat;lon;timestamp;P1;durP1;ratioP1;P2;durP2;ratioP2
10313;SDS011;5202;49.138;10.090;2022-09-03T00:02:18;1.80;;;1.42;;
10313;SDS011;5202;49.138;10.090;2022-09-03T00:04:58;1.40;;;1.30;;
10313;SDS011;5202;49.138;10.090;2022-09-03T00:07:39;2.72;;;1.50;;
10313;SDS011;5202;49.138;10.090;2022-09-03T00:10:15;1.58;;;1.40;;
10313;SDS011;5202;49.138;10.090;2022-09-03T00:12:49;1.77;;;1.13;;
10313;SDS011;5202;49.138;10.090;2022-09-03T00:15:24;3.88;;;1.45;;
10313;SDS011;5202;49.138;10.090;2022-09-03T00:17:56;3.65;;;1.40;;
10313;SDS011;5202;49.138;10.090;2022-09-03T00:20:30;3.53;;;1.30;;
10313;SDS011;5202;49.138;10.090;2022-09-03T00:23:05;1.77;;;1.33;;
10313;SDS011;5202;49.138;10.090;2022-09-03T00:25:38;1.65;;;1.50;;
10313;SDS011;5202;49.138;10.090;2022-09-03T00:28:12;3.63;;;1.27;;
10313;SDS011;5202;49.138;10.090;2022-09-03T00:30:44;2.72;;;1.42;;
10313;SDS011;5202;49.138;10.090;2022-09-03T00:33:24;2.25;;;1.35;;
10313;SDS011;5202;49.138;10.090;2022-09-03T00:36:02;1.85;;;1.45;;
10313;SDS011;5202;49.138;10.090;2022-09-03T00:38:38;2.35;;;1.40;;
10313;SDS011;5202;49.138;10.090;2022-09-03T00:41:07;1.48;;;1.38;;
10313;SDS011;5202;49.138;10.090;2022-09-03T00:43:48;4.80;;;1.70;;
10313;SDS011;5202;49.138;10.090;2022-09-03T00:46:35;1.67;;;1.40;;
10313;SDS011;5202;49.138;10.090;2022-09-03T00:49:18;1.95;;;1.50;;
10313;SDS011;5202;49.138;10.090;2022-09-03T00:51:58;3.17;;;1.48;;
10313;SDS011;5202;49.138;10.090;2022-09-03T00:54:40;3.42;;;1.70;;
10313;SDS011;5202;49.138;10.090;2022-09-03T00:57:20;1.77;;;1.63;;
10313;SDS011;5202;49.138;10.090;2022-09-03T01:00:06;2.05;;;1.45;;
10313;SDS011;5202;49.138;10.090;2022-09-03T01:02:46;2.28;;;1.55;;
10313;SDS011;5202;49.138;10.090;2022-09-03T01:05:39;4.25;;;1.40;;
10313;SDS011;5202;49.138;10.090;2022-09-03T01:08:27;2.65;;;1.63;;
10313;SDS011;5202;49.138;10.090;2022-09-03T01:11:19;2.10;;;1.70;;
10313;SDS011;5202;49.138;10.090;2022-09-03T01:14:00;2.38;;;1.40;;
10313;SDS011;5202;49.138;10.090;2022-09-03T01:16:35;2.08;;;1.40;;
10313;SDS011;5202;49.138;10.090;2022-09-03T01:19:16;1.70;;;1.50;;
10313;SDS011;5202;49.138;10.090;2022-09-03T01:22:27;1.90;;;1.40;;
10313;SDS011;5202;49.138;10.090;2022-09-03T01:25:37;2.88;;;1.40;;
10313;SDS011;5202;49.138;10.090;2022-09-03T01:28:21;2.35;;;1.20;;
10313;SDS011;5202;49.138;10.090;2022-09-03T01:31:06;2.42;;;1.40;;
10313;SDS011;5202;49.138;10.090;2022-09-03T01:33:46;2.30;;;1.42;;
10313;SDS011;5202;49.138;10.090;2022-09-03T01:36:23;3.47;;;1.60;;
10313;SDS011;5202;49.138;10.090;2022-09-03T01:39:00;1.63;;;1.25;;
10313;SDS011;5202;49.138;10.090;2022-09-03T01:41:34;3.60;;;2.15;;
10313;SDS011;5202;49.138;10.090;2022-09-03T01:44:36;3.42;;;1.70;;
10313;SDS011;5202;49.138;10.090;2022-09-03T01:47:21;1.70;;;1.60;;
10313;SDS011;5202;49.138;10.090;2022-09-03T01:50:09;2.15;;;1.60;;
10313;SDS011;5202;49.138;10.090;2022-09-03T01:52:49;2.47;;;1.30;;
10313;SDS011;5202;49.138;10.090;2022-09-03T01:55:25;2.40;;;1.70;;
10313;SDS011;5202;49.138;10.090;2022-09-03T01:58:00;1.85;;;1.70;;
10313;SDS011;5202;49.138;10.090;2022-09-03T02:00:34;1.90;;;1.70;;
10313;SDS011;5202;49.138;10.090;2022-09-03T02:03:08;3.58;;;1.52;;
10313;SDS011;5202;49.138;10.090;2022-09-03T02:05:39;1.65;;;1.40;;
10313;SDS011;5202;49.138;10.090;2022-09-03T02:08:09;1.65;;;1.50;;
10313;SDS011;5202;49.138;10.090;2022-09-03T02:10:39;2.80;;;1.60;;
10313;SDS011;5202;49.138;10.090;2022-09-03T02:13:12;2.13;;;1.70;;
10313;SDS011;5202;49.138;10.090;2022-09-03T02:15:47;1.60;;;1.30;;
10313;SDS011;5202;49.138;10.090;2022-09-03T02:18:19;3.67;;;1.60;;
10313;SDS011;5202;49.138;10.090;2022-09-03T02:20:51;3.67;;;1.58;;
10313;SDS011;5202;49.138;10.090;2022-09-03T02:23:20;1.70;;;1.60;;
10313;SDS011;5202;49.138;10.090;2022-09-03T02:25:54;1.83;;;1.50;;
10313;SDS011;5202;49.138;10.090;2022-09-03T02:28:25;2.33;;;1.53;;
10313;SDS011;5202;49.138;10.090;2022-09-03T02:30:57;3.97;;;1.40;;
10313;SDS011;5202;49.138;10.090;2022-09-03T02:33:26;2.20;;;1.53;;
10313;SDS011;5202;49.138;10.090;2022-09-03T02:35:54;1.93;;;1.60;;
10313;SDS011;5202;49.138;10.090;2022-09-03T02:38:24;1.97;;;1.67;;
10313;SDS011;5202;49.138;10.090;2022-09-03T02:40:53;1.93;;;1.73;;
10313;SDS011;5202;49.138;10.090;2022-09-03T02:43:23;2.50;;;1.60;;
10313;SDS011;5202;49.138;10.090;2022-09-03T02:46:00;3.83;;;1.80;;
10313;SDS011;5202;49.138;10.090;2022-09-03T02:48:31;3.37;;;1.50;;
10313;SDS011;5202;49.138;10.090;2022-09-03T02:51:00;3.33;;;1.60;;
10313;SDS011;5202;49.138;10.090;2022-09-03T02:53:40;2.93;;;1.80;;
10313;SDS011;5202;49.138;10.090;2022-09-03T02:56:09;2.50;;;1.70;;
10313;SDS011;5202;49.138;10.090;2022-09-03T02:58:38;1.70;;;1.57;;
10313;SDS011;5202;49.138;10.090;2022-09-03T03:01:08;2.40;;;1.53;;
10313;SDS011;5202;49.138;10.090;2022-09-03T03:03:43;3.97;;;1.73;;
10313;SDS011;5202;49.138;10.090;2022-09-03T03:06:11;1.70;;;1.40;;
10313;SDS011;5202;49.138;10.090;2022-09-03T03:08:40;2.00;;;1.60;;
10313;SDS011;5202;49.138;10.090;2022-09-03T03:11:09;3.83;;;1.67;;
10313;SDS011;5202;49.138;10.090;2022-09-03T03:13:37;1.90;;;1.60;;
10313;SDS011;5202;49.138;10.090;2022-09-03T03:16:08;3.37;;;1.70;;
10313;SDS011;5202;49.138;10.090;2022-09-03T03:18:36;8.17;;;1.57;;
10313;SDS011;5202;49.138;10.090;2022-09-03T03:21:05;2.07;;;1.50;;
10313;SDS011;5202;49.138;10.090;2022-09-03T03:23:35;2.20;;;1.60;;
10313;SDS011;5202;49.138;10.090;2022-09-03T03:26:05;3.47;;;1.77;;
10313;SDS011;5202;49.138;10.090;2022-09-03T03:28:36;2.20;;;1.70;;
10313;SDS011;5202;49.138;10.090;2022-09-03T03:31:09;2.77;;;1.90;;
10313;SDS011;5202;49.138;10.090;2022-09-03T03:33:40;2.38;;;1.73;;
10313;SDS011;5202;49.138;10.090;2022-09-03T03:36:10;4.10;;;1.75;;
10313;SDS011;5202;49.138;10.090;2022-09-03T03:38:40;2.83;;;1.50;;
10313;SDS011;5202;49.138;10.090;2022-09-03T03:41:09;1.87;;;1.77;;
10313;SDS011;5202;49.138;10.090;2022-09-03T03:43:41;3.40;;;1.90;;
10313;SDS011;5202;49.138;10.090;2022-09-03T03:46:11;2.00;;;1.87;;
10313;SDS011;5202;49.138;10.090;2022-09-03T03:48:41;1.93;;;1.40;;
10313;SDS011;5202;49.138;10.090;2022-09-03T03:51:09;1.90;;;1.53;;
10313;SDS011;5202;49.138;10.090;2022-09-03T03:53:38;1.70;;;1.60;;
10313;SDS011;5202;49.138;10.090;2022-09-03T03:56:07;2.92;;;1.42;;
10313;SDS011;5202;49.138;10.090;2022-09-03T03:58:38;2.73;;;1.50;;
10313;SDS011;5202;49.138;10.090;2022-09-03T04:01:11;4.47;;;1.80;;
10313;SDS011;5202;49.138;10.090;2022-09-03T04:03:44;1.80;;;1.33;;
10313;SDS011;5202;49.138;10.090;2022-09-03T04:06:17;1.83;;;1.48;;
10313;SDS011;5202;49.138;10.090;2022-09-03T04:08:47;1.75;;;1.45;;
10313;SDS011;5202;49.138;10.090;2022-09-03T04:11:17;4.68;;;1.88;;
10313;SDS011;5202;49.138;10.090;2022-09-03T04:13:48;2.23;;;1.80;;
10313;SDS011;5202;49.138;10.090;2022-09-03T04:16:19;4.60;;;1.80;;
10313;SDS011;5202;49.138;10.090;2022-09-03T04:18:49;2.83;;;1.70;;
10313;SDS011;5202;49.138;10.090;2022-09-03T04:21:19;1.97;;;1.63;;
10313;SDS011;5202;49.138;10.090;2022-09-03T04:23:50;2.88;;;1.80;;
10313;SDS011;5202;49.138;10.090;2022-09-03T04:26:21;3.43;;;1.67;;
10313;SDS011;5202;49.138;10.090;2022-09-03T04:28:52;3.73;;;1.90;;
10313;SDS011;5202;49.138;10.090;2022-09-03T04:31:22;1.63;;;1.53;;
10313;SDS011;5202;49.138;10.090;2022-09-03T04:33:50;3.10;;;1.97;;
10313;SDS011;5202;49.138;10.090;2022-09-03T04:36:21;2.27;;;1.70;;
10313;SDS011;5202;49.138;10.090;2022-09-03T04:38:52;2.93;;;2.00;;
10313;SDS011;5202;49.138;10.090;2022-09-03T04:41:22;10.25;;;2.00;;
10313;SDS011;5202;49.138;10.090;2022-09-03T04:43:53;2.25;;;1.65;;
10313;SDS011;5202;49.138;10.090;2022-09-03T04:46:25;2.27;;;1.70;;
10313;SDS011;5202;49.138;10.090;2022-09-03T04:49:00;3.37;;;1.50;;
10313;SDS011;5202;49.138;10.090;2022-09-03T04:51:29;4.37;;;2.07;;
10313;SDS011;5202;49.138;10.090;2022-09-03T04:53:58;2.30;;;1.70;;
10313;SDS011;5202;49.138;10.090;2022-09-03T04:56:28;3.23;;;2.20;;
10313;SDS011;5202;49.138;10.090;2022-09-03T04:58:59;3.53;;;1.77;;
10313;SDS011;5202;49.138;10.090;2022-09-03T05:01:33;5.50;;;1.90;;
10313;SDS011;5202;49.138;10.090;2022-09-03T05:04:03;3.40;;;1.73;;
10313;SDS011;5202;49.138;10.090;2022-09-03T05:06:33;1.87;;;1.67;;
10313;SDS011;5202;49.138;10.090;2022-09-03T05:09:03;3.03;;;1.77;;
10313;SDS011;5202;49.138;10.090;2022-09-03T05:11:32;1.88;;;1.65;;
10313;SDS011;5202;49.138;10.090;2022-09-03T05:14:00;2.15;;;1.95;;
10313;SDS011;5202;49.138;10.090;2022-09-03T05:16:28;2.03;;;1.80;;
10313;SDS011;5202;49.138;10.090;2022-09-03T05:18:58;2.17;;;1.70;;
10313;SDS011;5202;49.138;10.090;2022-09-03T05:21:29;2.93;;;1.87;;
10313;SDS011;5202;49.138;10.090;2022-09-03T05:23:58;3.57;;;1.90;;
10313;SDS011;5202;49.138;10.090;2022-09-03T05:26:28;1.70;;;1.60;;
10313;SDS011;5202;49.138;10.090;2022-09-03T05:28:59;2.10;;;1.90;;
10313;SDS011;5202;49.138;10.090;2022-09-03T05:31:29;4.82;;;1.73;;
10313;SDS011;5202;49.138;10.090;2022-09-03T05:34:00;4.80;;;1.92;;
10313;SDS011;5202;49.138;10.090;2022-09-03T05:36:32;3.08;;;1.60;;
10313;SDS011;5202;49.138;10.090;2022-09-03T05:39:02;2.30;;;1.90;;
10313;SDS011;5202;49.138;10.090;2022-09-03T05:41:31;3.53;;;1.97;;
10313;SDS011;5202;49.138;10.090;2022-09-03T05:44:00;3.92;;;1.85;;
10313;SDS011;5202;49.138;10.090;2022-09-03T05:46:30;2.25;;;1.67;;
10313;SDS011;5202;49.138;10.090;2022-09-03T05:49:04;2.95;;;1.98;;
10313;SDS011;5202;49.138;10.090;2022-09-03T05:51:34;3.63;;;1.70;;
10313;SDS011;5202;49.138;10.090;2022-09-03T05:54:04;3.08;;;1.85;;
10313;SDS011;5202;49.138;10.090;2022-09-03T05:56:35;2.47;;;1.88;;
10313;SDS011;5202;49.138;10.090;2022-09-03T05:59:06;1.88;;;1.60;;
10313;SDS011;5202;49.138;10.090;2022-09-03T06:01:36;2.80;;;1.73;;
10313;SDS011;5202;49.138;10.090;2022-09-03T06:04:18;1.75;;;1.65;;
10313;SDS011;5202;49.138;10.090;2022-09-03T06:06:56;2.53;;;1.95;;
10313;SDS011;5202;49.138;10.090;2022-09-03T06:09:24;3.28;;;1.60;;
10313;SDS011;5202;49.138;10.090;2022-09-03T06:11:52;2.72;;;1.80;;
10313;SDS011;5202;49.138;10.090;2022-09-03T06:14:23;3.28;;;1.70;;
10313;SDS011;5202;49.138;10.090;2022-09-03T06:16:52;2.40;;;1.85;;
10313;SDS011;5202;49.138;10.090;2022-09-03T06:19:23;2.45;;;2.00;;
10313;SDS011;5202;49.138;10.090;2022-09-03T06:21:51;4.25;;;1.90;;
10313;SDS011;5202;49.138;10.090;2022-09-03T06:24:20;1.92;;;1.80;;
10313;SDS011;5202;49.138;10.090;2022-09-03T06:26:53;3.10;;;1.70;;
10313;SDS011;5202;49.138;10.090;2022-09-03T06:29:23;3.33;;;1.92;;
10313;SDS011;5202;49.138;10.090;2022-09-03T06:31:52;2.22;;;2.03;;
10313;SDS011;5202;49.138;10.090;2022-09-03T06:34:23;2.13;;;1.92;;
10313;SDS011;5202;49.138;10.090;2022-09-03T06:36:52;4.78;;;1.92;;
10313;SDS011;5202;49.138;10.090;2022-09-03T06:39:20;2.67;;;1.80;;
10313;SDS011;5202;49.138;10.090;2022-09-03T06:41:50;2.65;;;1.80;;
10313;SDS011;5202;49.138;10.090;2022-09-03T06:44:25;3.88;;;1.90;;
10313;SDS011;5202;49.138;10.090;2022-09-03T06:46:53;2.83;;;1.77;;
10313;SDS011;5202;49.138;10.090;2022-09-03T06:49:27;2.20;;;2.00;;
10313;SDS011;5202;49.138;10.090;2022-09-03T06:52:01;2.60;;;1.50;;
10313;SDS011;5202;49.138;10.090;2022-09-03T06:54:29;2.55;;;2.00;;
10313;SDS011;5202;49.138;10.090;2022-09-03T06:56:58;3.78;;;1.88;;
10313;SDS011;5202;49.138;10.090;2022-09-03T06:59:26;3.85;;;2.08;;
10313;SDS011;5202;49.138;10.090;2022-09-03T07:01:54;3.55;;;1.90;;
10313;SDS011;5202;49.138;10.090;2022-09-03T07:04:29;2.47;;;1.90;;
10313;SDS011;5202;49.138;10.090;2022-09-03T07:07:01;1.90;;;1.80;;
10313;SDS011;5202;49.138;10.090;2022-09-03T07:09:29;2.22;;;1.80;;
10313;SDS011;5202;49.138;10.090;2022-09-03T07:12:01;2.08;;;1.80;;
10313;SDS011;5202;49.138;10.090;2022-09-03T07:14:30;3.17;;;1.98;;
10313;SDS011;5202;49.138;10.090;2022-09-03T07:16:59;3.63;;;2.00;;
10313;SDS011;5202;49.138;10.090;2022-09-03T07:19:32;2.78;;;1.85;;
10313;SDS011;5202;49.138;10.090;2022-09-03T07:22:00;2.22;;;2.03;;
10313;SDS011;5202;49.138;10.090;2022-09-03T07:24:28;8.15;;;2.30;;
10313;SDS011;5202;49.138;10.090;2022-09-03T07:26:57;2.92;;;2.03;;
10313;SDS011;5202;49.138;10.090;2022-09-03T07:29:25;2.10;;;1.90;;
10313;SDS011;5202;49.138;10.090;2022-09-03T07:31:54;6.03;;;2.20;;
10313;SDS011;5202;49.138;10.090;2022-09-03T07:34:22;2.83;;;2.17;;
10313;SDS011;5202;49.138;10.090;2022-09-03T07:36:53;2.80;;;2.20;;
10313;SDS011;5202;49.138;10.090;2022-09-03T07:39:21;2.70;;;2.00;;
10313;SDS011;5202;49.138;10.090;2022-09-03T07:41:50;5.05;;;2.40;;
10313;SDS011;5202;49.138;10.090;2022-09-03T07:44:18;2.90;;;2.20;;
10313;SDS011;5202;49.138;10.090;2022-09-03T07:46:47;6.78;;;2.45;;
10313;SDS011;5202;49.138;10.090;2022-09-03T07:49:17;2.50;;;2.30;;
10313;SDS011;5202;49.138;10.090;2022-09-03T07:51:47;2.97;;;2.08;;
10313;SDS011;5202;49.138;10.090;2022-09-03T07:54:20;2.78;;;2.00;;
10313;SDS011;5202;49.138;10.090;2022-09-03T07:56:51;4.68;;;2.20;;
10313;SDS011;5202;49.138;10.090;2022-09-03T07:59:21;2.45;;;2.10;;
10313;SDS011;5202;49.138;10.090;2022-09-03T08:01:49;2.28;;;2.08;;
10313;SDS011;5202;49.138;10.090;2022-09-03T08:04:18;3.40;;;2.67;;
10313;SDS011;5202;49.138;10.090;2022-09-03T08:06:58;4.22;;;2.38;;
10313;SDS011;5202;49.138;10.090;2022-09-03T08:09:53;2.47;;;2.28;;
10313;SDS011;5202;49.138;10.090;2022-09-03T08:12:21;2.78;;;2.40;;
10313;SDS011;5202;49.138;10.090;2022-09-03T08:14:50;2.88;;;2.67;;
10313;SDS011;5202;49.138;10.090;2022-09-03T08:17:18;3.50;;;2.40;;
10313;SDS011;5202;49.138;10.090;2022-09-03T08:19:46;3.35;;;2.05;;
10313;SDS011;5202;49.138;10.090;2022-09-03T08:22:14;2.55;;;1.80;;
10313;SDS011;5202;49.138;10.090;2022-09-03T08:24:43;2.55;;;2.35;;
10313;SDS011;5202;49.138;10.090;2022-09-03T08:27:12;2.95;;;2.22;;
10313;SDS011;5202;49.138;10.090;2022-09-03T08:29:41;3.28;;;2.30;;
10313;SDS011;5202;49.138;10.090;2022-09-03T08:32:12;4.60;;;2.00;;
10313;SDS011;5202;49.138;10.090;2022-09-03T08:34:40;3.45;;;2.10;;
10313;SDS011;5202;49.138;10.090;2022-09-03T08:37:08;2.22;;;2.03;;
10313;SDS011;5202;49.138;10.090;2022-09-03T08:39:38;3.58;;;2.42;;
10313;SDS011;5202;49.138;10.090;2022-09-03T08:42:20;2.50;;;1.92;;
10313;SDS011;5202;49.138;10.090;2022-09-03T08:45:00;3.47;;;2.30;;
10313;SDS011;5202;49.138;10.090;2022-09-03T08:47:33;2.88;;;2.30;;
10313;SDS011;5202;49.138;10.090;2022-09-03T08:50:07;2.25;;;2.03;;
10313;SDS011;5202;49.138;10.090;2022-09-03T08:52:44;5.18;;;2.20;;
10313;SDS011;5202;49.138;10.090;2022-09-03T08:55:16;4.25;;;2.20;;
10313;SDS011;5202;49.138;10.090;2022-09-03T08:57:52;2.17;;;1.98;;
10313;SDS011;5202;49.138;10.090;2022-09-03T09:00:32;3.58;;;2.20;;
10313;SDS011;5202;49.138;10.090;2022-09-03T09:03:21;2.55;;;2.25;;
10313;SDS011;5202;49.138;10.090;2022-09-03T09:06:13;3.53;;;2.15;;
10313;SDS011;5202;49.138;10.090;2022-09-03T09:08:51;5.00;;;2.50;;
10313;SDS011;5202;49.138;10.090;2022-09-03T09:11:36;3.75;;;2.80;;
10313;SDS011;5202;49.138;10.090;2022-09-03T09:14:18;2.92;;;1.90;;
10313;SDS011;5202;49.138;10.090;2022-09-03T09:16:56;4.22;;;2.33;;
10313;SDS011;5202;49.138;10.090;2022-09-03T09:19:42;3.53;;;2.00;;
10313;SDS011;5202;49.138;10.090;2022-09-03T09:22:21;3.95;;;2.10;;
10313;SDS011;5202;49.138;10.090;2022-09-03T09:24:56;2.60;;;2.17;;
10313;SDS011;5202;49.138;10.090;2022-09-03T09:27:29;3.17;;;2.30;;
10313;SDS011;5202;49.138;10.090;2022-09-03T09:30:03;2.50;;;2.20;;
10313;SDS011;5202;49.138;10.090;2022-09-03T09:32:33;2.47;;;2.05;;
10313;SDS011;5202;49.138;10.090;2022-09-03T09:35:07;2.40;;;2.13;;
10313;SDS011;5202;49.138;10.090;2022-09-03T09:37:45;6.68;;;2.35;;
10313;SDS011;5202;49.138;10.090;2022-09-03T09:40:24;2.35;;;2.15;;
10313;SDS011;5202;49.138;10.090;2022-09-03T09:43:05;2.47;;;2.28;;
10313;SDS011;5202;49.138;10.090;2022-09-03T09:45:38;6.53;;;2.75;;
10313;SDS011;5202;49.138;10.090;2022-09-03T09:48:14;3.53;;;2.28;;
10313;SDS011;5202;49.138;10.090;2022-09-03T09:50:48;2.92;;;2.60;;
10313;SDS011;5202;49.138;10.090;2022-09-03T09:53:17;2.53;;;2.25;;
10313;SDS011;5202;49.138;10.090;2022-09-03T09:55:48;4.00;;;2.03;;
10313;SDS011;5202;49.138;10.090;2022-09-03T09:58:19;2.65;;;2.45;;
10313;SDS011;5202;49.138;10.090;2022-09-03T10:03:51;3.40;;;2.30;;
10313;SDS011;5202;49.138;10.090;2022-09-03T10:06:22;4.20;;;2.47;;
10313;SDS011;5202;49.138;10.090;2022-09-03T10:09:05;5.80;;;2.45;;
10313;SDS011;5202;49.138;10.090;2022-09-03T10:11:37;4.80;;;2.63;;
10313;SDS011;5202;49.138;10.090;2022-09-03T10:14:09;2.90;;;2.63;;
10313;SDS011;5202;49.138;10.090;2022-09-03T10:16:46;4.65;;;2.50;;
10313;SDS011;5202;49.138;10.090;2022-09-03T10:19:21;4.00;;;2.80;;
10313;SDS011;5202;49.138;10.090;2022-09-03T10:22:01;4.10;;;2.50;;
10313;SDS011;5202;49.138;10.090;2022-09-03T10:24:37;3.38;;;2.67;;
10313;SDS011;5202;49.138;10.090;2022-09-03T10:27:17;2.70;;;2.50;;
10313;SDS011;5202;49.138;10.090;2022-09-03T10:29:47;2.35;;;2.15;;
10313;SDS011;5202;49.138;10.090;2022-09-03T10:32:21;3.13;;;2.75;;
10313;SDS011;5202;49.138;10.090;2022-09-03T10:35:08;3.50;;;2.90;;
10313;SDS011;5202;49.138;10.090;2022-09-03T10:37:49;3.35;;;2.67;;
10313;SDS011;5202;49.138;10.090;2022-09-03T10:40:24;2.70;;;2.50;;
10313;SDS011;5202;49.138;10.090;2022-09-03T10:43:05;2.65;;;2.30;;
10313;SDS011;5202;49.138;10.090;2022-09-03T10:45:48;3.85;;;2.60;;
10313;SDS011;5202;49.138;10.090;2022-09-03T10:48:37;2.65;;;2.40;;
10313;SDS011;5202;49.138;10.090;2022-09-03T10:51:17;3.75;;;2.65;;
10313;SDS011;5202;49.138;10.090;2022-09-03T10:53:54;4.28;;;2.33;;
10313;SDS011;5202;49.138;10.090;2022-09-03T10:56:38;3.10;;;2.33;;
10313;SDS011;5202;49.138;10.090;2022-09-03T10:59:22;5.43;;;2.60;;
10313;SDS011;5202;49.138;10.090;2022-09-03T11:02:07;2.92;;;2.45;;
10313;SDS011;5202;49.138;10.090;2022-09-03T11:04:57;4.82;;;2.95;;
10313;SDS011;5202;49.138;10.090;2022-09-03T11:07:31;3.75;;;2.67;;
10313;SDS011;5202;49.138;10.090;2022-09-03T11:10:10;2.53;;;2.33;;
10313;SDS011;5202;49.138;10.090;2022-09-03T11:12:44;3.30;;;2.50;;
10313;SDS011;5202;49.138;10.090;2022-09-03T11:15:19;3.25;;;2.95;;
10313;SDS011;5202;49.138;10.090;2022-09-03T11:17:54;3.05;;;2.53;;
10313;SDS011;5202;49.138;10.090;2022-09-03T11:20:29;2.45;;;2.25;;
10313;SDS011;5202;49.138;10.090;2022-09-03T11:22:59;2.45;;;2.25;;
10313;SDS011;5202;49.138;10.090;2022-09-03T11:25:33;2.80;;;2.35;;
10313;SDS011;5202;49.138;10.090;2022-09-03T11:28:08;4.13;;;2.15;;
10313;SDS011;5202;49.138;10.090;2022-09-03T11:30:51;2.40;;;2.20;;
10313;SDS011;5202;49.138;10.090;2022-09-03T11:33:40;4.43;;;2.42;;
10313;SDS011;5202;49.138;10.090;2022-09-03T11:36:13;2.83;;;2.35;;
10313;SDS011;5202;49.138;10.090;2022-09-03T11:38:55;2.40;;;2.20;;
10313;SDS011;5202;49.138;10.090;2022-09-03T11:41:26;2.97;;;2.35;;
10313;SDS011;5202;49.138;10.090;2022-09-03T11:43:55;5.22;;;2.70;;
10313;SDS011;5202;49.138;10.090;2022-09-03T11:46:30;3.15;;;2.22;;
10313;SDS011;5202;49.138;10.090;2022-09-03T11:49:10;2.45;;;2.22;;
10313;SDS011;5202;49.138;10.090;2022-09-03T11:51:42;3.33;;;2.63;;
10313;SDS011;5202;49.138;10.090;2022-09-03T11:54:22;2.53;;;2.13;;
10313;SDS011;5202;49.138;10.090;2022-09-03T11:57:02;2.97;;;2.35;;
10313;SDS011;5202;49.138;10.090;2022-09-03T11:59:37;4.15;;;2.30;;
10313;SDS011;5202;49.138;10.090;2022-09-03T12:02:21;2.60;;;2.25;;
10313;SDS011;5202;49.138;10.090;2022-09-03T12:05:04;2.38;;;2.17;;
10313;SDS011;5202;49.138;10.090;2022-09-03T12:08:01;2.90;;;2.08;;
10313;SDS011;5202;49.138;10.090;2022-09-03T12:10:55;3.95;;;2.17;;
10313;SDS011;5202;49.138;10.090;2022-09-03T12:13:43;2.67;;;2.20;;
10313;SDS011;5202;49.138;10.090;2022-09-03T12:16:26;3.28;;;2.25;;
10313;SDS011;5202;49.138;10.090;2022-09-03T12:19:26;3.35;;;2.22;;
10313;SDS011;5202;49.138;10.090;2022-09-03T12:22:03;2.50;;;2.30;;
10313;SDS011;5202;49.138;10.090;2022-09-03T12:24:33;3.90;;;1.95;;
10313;SDS011;5202;49.138;10.090;2022-09-03T12:27:04;2.58;;;2.38;;
10313;SDS011;5202;49.138;10.090;2022-09-03T12:29:33;4.35;;;2.63;;
10313;SDS011;5202;49.138;10.090;2022-09-03T12:32:06;5.18;;;2.50;;
10313;SDS011;5202;49.138;10.090;2022-09-03T12:34:38;2.30;;;2.10;;
10313;SDS011;5202;49.138;10.090;2022-09-03T12:37:15;3.05;;;2.63;;
10313;SDS011;5202;49.138;10.090;2022-09-03T12:40:16;2.50;;;2.25;;
10313;SDS011;5202;49.138;10.090;2022-09-03T12:42:47;2.22;;;2.03;;
10313;SDS011;5202;49.138;10.090;2022-09-03T12:45:18;2.70;;;2.00;;
10313;SDS011;5202;49.138;10.090;2022-09-03T12:47:49;3.33;;;2.20;;
10313;SDS011;5202;49.138;10.090;2022-09-03T12:50:19;3.08;;;2.25;;
10313;SDS011;5202;49.138;10.090;2022-09-03T12:52:50;2.50;;;2.20;;
10313;SDS011;5202;49.138;10.090;2022-09-03T12:55:28;2.15;;;1.98;;
10313;SDS011;5202;49.138;10.090;2022-09-03T12:58:03;3.58;;;2.20;;
10313;SDS011;5202;49.138;10.090;2022-09-03T13:00:41;2.22;;;2.03;;
10313;SDS011;5202;49.138;10.090;2022-09-03T13:03:15;3.15;;;2.17;;
10313;SDS011;5202;49.138;10.090;2022-09-03T13:05:48;2.53;;;2.33;;
10313;SDS011;5202;49.138;10.090;2022-09-03T13:08:22;4.35;;;3.00;;
10313;SDS011;5202;49.138;10.090;2022-09-03T13:10:55;2.60;;;2.40;;
10313;SDS011;5202;49.138;10.090;2022-09-03T13:13:28;4.22;;;2.80;;
10313;SDS011;5202;49.138;10.090;2022-09-03T13:16:09;3.95;;;2.30;;
10313;SDS011;5202;49.138;10.090;2022-09-03T13:19:03;4.68;;;2.40;;
10313;SDS011;5202;49.138;10.090;2022-09-03T13:21:40;2.85;;;2.20;;
10313;SDS011;5202;49.138;10.090;2022-09-03T13:27:20;3.03;;;2.38;;
10313;SDS011;5202;49.138;10.090;2022-09-03T13:30:00;5.22;;;2.47;;
10313;SDS011;5202;49.138;10.090;2022-09-03T13:32:38;2.60;;;2.30;;
10313;SDS011;5202;49.138;10.090;2022-09-03T13:35:20;2.70;;;2.50;;
10313;SDS011;5202;49.138;10.090;2022-09-03T13:37:57;4.25;;;2.40;;
10313;SDS011;5202;49.138;10.090;2022-09-03T13:40:40;3.03;;;2.47;;
10313;SDS011;5202;49.138;10.090;2022-09-03T13:43:21;4.03;;;2.50;;
10313;SDS011;5202;49.138;10.090;2022-09-03T13:45:57;2.42;;;2.22;;
10313;SDS011;5202;49.138;10.090;2022-09-03T13:48:30;3.63;;;2.50;;
10313;SDS011;5202;49.138;10.090;2022-09-03T13:51:23;3.92;;;2.40;;
10313;SDS011;5202;49.138;10.090;2022-09-03T13:53:58;3.47;;;2.35;;
10313;SDS011;5202;49.138;10.090;2022-09-03T13:56:57;3.67;;;2.42;;
10313;SDS011;5202;49.138;10.090;2022-09-03T13:59:33;2.22;;;2.05;;
10313;SDS011;5202;49.138;10.090;2022-09-03T14:02:14;2.47;;;2.28;;
10313;SDS011;5202;49.138;10.090;2022-09-03T14:04:57;2.60;;;2.40;;
10313;SDS011;5202;49.138;10.090;2022-09-03T14:07:43;2.53;;;2.33;;
10313;SDS011;5202;49.138;10.090;2022-09-03T14:10:22;2.67;;;2.45;;
10313;SDS011;5202;49.138;10.090;2022-09-03T14:13:01;3.17;;;2.03;;
10313;SDS011;5202;49.138;10.090;2022-09-03T14:15:42;1.58;;;1.48;;
10313;SDS011;5202;49.138;10.090;2022-09-03T14:18:22;2.70;;;1.40;;
10313;SDS011;5202;49.138;10.090;2022-09-03T14:21:06;4.15;;;1.65;;
10313;SDS011;5202;49.138;10.090;2022-09-03T14:23:42;2.90;;;1.42;;
10313;SDS011;5202;49.138;10.090;2022-09-03T14:26:16;3.25;;;1.50;;
10313;SDS011;5202;49.138;10.090;2022-09-03T14:29:05;2.08;;;1.60;;
10313;SDS011;5202;49.138;10.090;2022-09-03T14:34:46;4.68;;;1.70;;
10313;SDS011;5202;49.138;10.090;2022-09-03T14:37:34;3.65;;;1.67;;
10313;SDS011;5202;49.138;10.090;2022-09-03T14:40:39;4.35;;;1.50;;
10313;SDS011;5202;49.138;10.090;2022-09-03T14:43:17;4.60;;;1.73;;
10313;SDS011;5202;49.138;10.090;2022-09-03T14:46:09;3.42;;;2.10;;
10313;SDS011;5202;49.138;10.090;2022-09-03T14:49:11;6.95;;;2.70;;
10313;SDS011;5202;49.138;10.090;2022-09-03T14:58:05;3.20;;;2.05;;
10313;SDS011;5202;49.138;10.090;2022-09-03T15:00:51;3.13;;;2.03;;
10313;SDS011;5202;49.138;10.090;2022-09-03T15:03:31;4.50;;;2.47;;
10313;SDS011;5202;49.138;10.090;2022-09-03T15:06:27;2.65;;;1.83;;
10313;SDS011;5202;49.138;10.090;2022-09-03T15:11:56;3.00;;;2.20;;
10313;SDS011;5202;49.138;10.090;2022-09-03T15:14:34;2.25;;;2.05;;
10313;SDS011;5202;49.138;10.090;2022-09-03T15:17:16;2.25;;;2.00;;
10313;SDS011;5202;49.138;10.090;2022-09-03T15:20:08;2.92;;;2.10;;
10313;SDS011;5202;49.138;10.090;2022-09-03T15:23:04;3.42;;;2.17;;
10313;SDS011;5202;49.138;10.090;2022-09-03T15:25:49;3.28;;;2.13;;
10313;SDS011;5202;49.138;10.090;2022-09-03T15:31:51;1.85;;;1.75;;
10313;SDS011;5202;49.138;10.090;2022-09-03T15:37:24;3.00;;;2.42;;
10313;SDS011;5202;49.138;10.090;2022-09-03T15:39:59;3.28;;;2.58;;
10313;SDS011;5202;49.138;10.090;2022-09-03T15:42:34;2.38;;;2.10;;
10313;SDS011;5202;49.138;10.090;2022-09-03T15:45:05;2.70;;;2.30;;
10313;SDS011;5202;49.138;10.090;2022-09-03T15:47:47;2.55;;;2.17;;
10313;SDS011;5202;49.138;10.090;2022-09-03T15:50:30;6.10;;;2.40;;
10313;SDS011;5202;49.138;10.090;2022-09-03T15:53:02;3.42;;;2.70;;
10313;SDS011;5202;49.138;10.090;2022-09-03T15:55:43;2.78;;;2.50;;
10313;SDS011;5202;49.138;10.090;2022-09-03T15:58:14;2.17;;;1.92;;
10313;SDS011;5202;49.138;10.090;2022-09-03T16:00:55;3.05;;;2.35;;
10313;SDS011;5202;49.138;10.090;2022-09-03T16:03:36;2.25;;;1.98;;